首页
METAR-TAF:

METAR-TAF

机场 :

Devils Lake, 北达科他州, 美国

纬度: 48-07N, 经度: 098-55W, 海拔: 443米

当前天气观测

该预报发布于31分钟前的10:56 UTC
风速6节,风向西
温度 8°C
湿度 93%
气压 1018 hPa
能見度: 16.1公里
天空无云

METAR: KDVL 191056Z AUTO 28006KT 10SM CLR 08/07 A3006 RMK AO2 SLP192 T00830067

时间: 06:27 (11:27 UTC)

预报

该预报发布于6小时和7分钟前的05:20 UTC
预报有效从19日的 06点(UTC)到 20日的 06点(UTC)
风速11节,风向北转西北
能見度: 10公里
阴天层高于5000英尺
附近有阵雨
从 19日的 0700点(UTC)
风速10节,风向西北
能見度: 10公里
阴天层高于4000英尺
附近有阵雨
从 19日的 1200点(UTC)
风速7节,风向西转西北
能見度: 10公里
天空无云
从 19日的 1900点(UTC)
风速5节,风向多变
能見度: 10公里
天空无云
从 20日的 0500点(UTC)
风速7节,风向南转南东
能見度: 10公里
少量云层高于20000英尺

TAF: KDVL 190520Z 1906/2006 34011KT P6SM VCSH OVC050 FM190700 31010KT P6SM VCSH OVC040 FM191200 29007KT P6SM SKC FM191900 VRB05KT P6SM SKC FM200500 16007KT P6SM FEW200

超过4000个机场的气象观测和天气预报(METAR&TAF报告)。

可查询的气象台以黄色和红色小点在地图上表示。

将鼠标移到小点上方,可查看气象台名称。

然后点击查看天气观测和预报。

如需切换地图:点击带黑十字的绿色按钮放大地图;点击带横线的绿色按钮缩小地图;或者点击绿色箭头查看邻近地区的地图。


METAR-TAF: